METAR stanice u blizini

 

LYBE - Beograd / Surčin, Srbija
Ažurirano: 21/05/2024 11:00
Vedro
Vedro
 Pravac vetra JI
Vetar: JI 37 km/h
Temperatura: 25°C
Tačka rose: 17°C
Vlažnost: 61%
Pritisak: 1009 hPa
Pregled: Vedro
Vidljivost: greater than 10 km
2024/05/21 09:00 LYBE 210900Z 14020KT CAVOK 25/17 Q1009 NOSIG
LYBT - Beograd / Batajnica, Srbija
Ažurirano: 21/05/2024 11:00
Vedro
Vedro
 Pravac vetra IJI
Vetar: IJI 28 km/h
Temperatura: 25°C
Tačka rose: 17°C
Vlažnost: 61%
Pritisak: 1009 hPa
Pregled: Vedro
Vidljivost: greater than 10 km
2024/05/21 09:00 LYBT 210900Z 12015KT CAVOK 25/17 Q1009 NOSIG
LYVR - Vršac, Srbija
Ažurirano: 21/05/2024 11:00
Vedro
Vedro
 Pravac vetra JJI
Vetar: JJI 30 km/h, Maks.: 56 km/h
Temperatura: 25°C
Tačka rose: 13°C
Vlažnost: 47%
Pritisak: 1010 hPa
Pregled: Vedro
Vidljivost: greater than 10 km
2024/05/21 09:00 LYVR 210900Z 15016G30KT CAVOK 25/13 Q1010 NOSIG
 
LYKV - Lađevci, Srbija
Ažurirano: 21/05/2024 11:00
Partly Cloudy
Partly Cloudy
 Pravac vetra IJI
Vetar: IJI 28 km/h
Temperatura: 24°C
Tačka rose: 17°C
Vlažnost: 65%
Pritisak: 1010 hPa
Oblaci: Partly Cloudy
Vidljivost: 10 km
Cloud details: Partly Cloudy 1829 m
2024/05/21 09:00 LYKV 210900Z 12015KT 100V160 9999 SCT060 24/17 Q1010 NOSIG
LYNI - Niš, Srbija
Ažurirano: 21/05/2024 11:00
Partly Cloudy
Partly Cloudy
 Pravac vetra I
Vetar: I 24 km/h
Temperatura: 23°C
Tačka rose: 16°C
Vlažnost: 65%
Pritisak: 1013 hPa
Oblaci: Partly Cloudy
Vidljivost: 10 km
Cloud details: Partly Cloudy 1433 m
2024/05/21 09:00 LYNI 210900Z 10013KT 9999 SCT047 23/16 Q1013 NOSIG
BKPR - Priština, Srbija
Ažurirano: 21/05/2024 11:30
Few Clouds
Few Clouds
 Pravac vetra JI
Vetar: JI 24 km/h
Temperatura: 23°C
Tačka rose: 18°C
Vlažnost: 74%
Pritisak: 1013 hPa
Oblaci: Few Clouds
Vidljivost: 10 km
Cloud details: Few Clouds 914 m
2024/05/21 09:30 BKPR 210930Z 14013KT 9999 FEW030 23/18 Q1013 NOSIG
 
LHPP - Pecs / Pogany, Hungary
Ažurirano: 21/05/2024 10:45
Vedro
Vedro
 Pravac vetra I
Vetar: I 22 km/h
Temperatura: 22°C
Tačka rose: 17°C
Vlažnost: 73%
Pritisak: 1009 hPa
Pregled: Vedro
Vidljivost: greater than 10 km
2024/05/21 08:45 LHPP 210845Z AUTO 10012KT 060V140 CAVOK 22/17 Q1009
LHUD - Szeged, Hungary
Ažurirano: 04/07/2019 01:45
NOT Current
Vedro
Vedro
 Pravac vetra S
Vetar: S 7 km/h
Temperatura: 18°C
Tačka rose: 13°C
Vlažnost: 73%
Pritisak: 1019 hPa
Pregled: Vedro
Vidljivost: greater than 10 km
2019/07/03 23:45 LHUD 032345Z 35004KT CAVOK 18/13 Q1019
LRTR - Timisoara, Romania
Ažurirano: 21/05/2024 11:00
Vedro
Vedro
 Pravac vetra IJI
Vetar: IJI 17 km/h
Temperatura: 25°C
Tačka rose: 13°C
Vlažnost: 47%
Pritisak: 1011 hPa
Pregled: Vedro
Vidljivost: greater than 10 km
2024/05/21 09:00 LRTR 210900Z 11009KT CAVOK 25/13 Q1011 NOSIG
 
LRCV - Craiova, Romania
Ažurirano: 21/05/2024 11:00
Vedro
Vedro
 Pravac vetra ISI
Vetar: ISI 30 km/h
Temperatura: 22°C
Tačka rose: 9°C
Vlažnost: 44%
Pritisak: 1015 hPa
Pregled: Vedro
Vidljivost: greater than 10 km
2024/05/21 09:00 LRCV 210900Z 07016KT CAVOK 22/09 Q1015
LBSF - Sofia, Bulgaria
Ažurirano: 21/05/2024 11:00
Few Clouds
Few Clouds
 Pravac vetra IJI
Vetar: IJI 31 km/h
Temperatura: 19°C
Tačka rose: 11°C
Vlažnost: 60%
Pritisak: 1017 hPa
Oblaci: Few Clouds
Vidljivost: 10 km
Cloud details: Few Clouds 1219 m
2024/05/21 09:00 LBSF 210900Z 11017KT 9999 FEW040 19/11 Q1017 NOSIG
LWSK - Skoplje, Makedonija
Ažurirano: 21/05/2024 11:20
Partly Cloudy
Partly Cloudy
 Pravac vetra varies
Vetar: varies 9 km/h
Temperatura: 26°C
Tačka rose: 18°C
Vlažnost: 61%
Pritisak: 1013 hPa
Oblaci: Partly Cloudy
Vidljivost: 10 km
Cloud details: Few Clouds 762 m
Partly Cloudy 1067 m
2024/05/21 09:20 LWSK 210920Z VRB05KT 9999 FEW025 SCT035 26/18 Q1013 NOSIG
 
LYPG - Podgorica, Crna Gora
Ažurirano: 21/05/2024 11:00
Vedro
Vedro
 Pravac vetra varies
Vetar: varies 2 km/h
Temperatura: 27°C
Heat Index: 28°C
Tačka rose: 18°C
Vlažnost: 58%
Pritisak: 1010 hPa
Pregled: Vedro
Vidljivost: greater than 10 km
2024/05/21 09:00 LYPG 210900Z VRB01KT CAVOK 27/18 Q1010 NOSIG
LQSA - Sarajevo, Bosna i Hercegovina
Ažurirano: 21/05/2024 11:00
Partly Cloudy
Partly Cloudy
 Pravac vetra J
Vetar: J 15 km/h
Temperatura: 27°C
Heat Index: 27°C
Tačka rose: 13°C
Vlažnost: 42%
Pritisak: 1009 hPa
Oblaci: Partly Cloudy
Vidljivost: 10 km
Cloud details: Few Clouds 1067 m
Partly Cloudy 1372 m
2024/05/21 09:00 LQSA 210900Z 18008KT 110V260 9999 FEW035TCU SCT045 27/13 Q1009 TEMPO SHRA
LDOS - Osijek, Hrvatksa
Ažurirano: 21/05/2024 11:00
Vedro
Vedro
 Pravac vetra IJI
Vetar: IJI 26 km/h
Temperatura: 24°C
Tačka rose: 17°C
Vlažnost: 65%
Pritisak: 1008 hPa
Pregled: Vedro
Vidljivost: greater than 10 km
2024/05/21 09:00 LDOS 210900Z 11014KT CAVOK 24/17 Q1008